Terminal Aerodrome Forecast
Issued by NWS Tiyan, Guam

Home | Current Version | Previous Version | Text Only | Print | Product List | Glossary On
Versions: 1 2 3 4 5 6 7 8 9 10 11 12 13 14
000
FTPQ31 PGUM 280148 AAA
TAFGUM
TAF AMD
PGUM 280148Z 2802/2906 10012KT P6SM VCTS SCT015CB BKN030
      TEMPO 2802/2806 10015G25KT 3SM +SHRA OVC015
     FM280800 10009KT P6SM VCSH SCT018 SCT035 BKN120=

USA.gov is the U.S. government's official web portal to all federal, state and local government web resources and services.